Search for airport 
image banner adimage banner adimage banner ad
image banner ad

NV04 - Marys River Ranch

Located in Deeth, United States

ICAO - NV04, IATA -

Data provided by Airmate  

General information

Coordinates: N41°18'59" W115°15'0"
Elevation is 5600 feet MSL.
Magnetic variation is 16° East
View others Airports in Nevada

Operational data

Special qualification required
Current time UTC:
Current local time:
Weather at : KEKO - Elko Rgnl ( 71 km )
METAR: KEKO 092256Z AUTO 01009G19KT 10SM OVC080 13/M04 A3000 RMK AO2 WSHFT 2222 SLP152 T01331044
TAF: KEKO 091721Z 0918/1018 00000KT P6SM SCT180 BKN200 FM092100 34008KT P6SM BKN070 BKN180 FM100000 01010G18KT P6SM SCT080 SCT120 BKN180 FM100300 02007KT P6SM SCT090 BKN180
View NOTAMs / SUP AIP / TFR affecting this airport [VIEW]
Communications frequencies: [VIEW]

Runways:

RWY identifierQFULength (ft)Width (ft)SurfaceLDA (ft)
02248080EARTH
20248080EARTH
06112060EARTH
24112060EARTH
1488060EARTH
3288060EARTH

Airport contact information

Address: Deeth United States

Satellite view of NV04